sensor_id;sensor_type;location;lat;lon;timestamp;P1;durP1;ratioP1;P2;durP2;ratioP2
23304;SDS011;11821;51.456;8.844;2022-07-23T00:00:34;11.88;;;10.48;;
23304;SDS011;11821;51.456;8.844;2022-07-23T00:03:00;11.27;;;9.85;;
23304;SDS011;11821;51.456;8.844;2022-07-23T00:05:26;12.60;;;10.82;;
23304;SDS011;11821;51.456;8.844;2022-07-23T00:07:53;11.07;;;9.95;;
23304;SDS011;11821;51.456;8.844;2022-07-23T00:10:19;11.13;;;9.95;;
23304;SDS011;11821;51.456;8.844;2022-07-23T00:12:45;14.18;;;10.52;;
23304;SDS011;11821;51.456;8.844;2022-07-23T00:15:11;13.55;;;9.50;;
23304;SDS011;11821;51.456;8.844;2022-07-23T00:17:38;13.68;;;10.38;;
23304;SDS011;11821;51.456;8.844;2022-07-23T00:20:04;15.38;;;10.63;;
23304;SDS011;11821;51.456;8.844;2022-07-23T00:22:31;15.52;;;10.05;;
23304;SDS011;11821;51.456;8.844;2022-07-23T00:24:57;12.82;;;11.45;;
23304;SDS011;11821;51.456;8.844;2022-07-23T00:27:23;12.40;;;10.27;;
23304;SDS011;11821;51.456;8.844;2022-07-23T00:29:50;12.60;;;11.18;;
23304;SDS011;11821;51.456;8.844;2022-07-23T00:32:16;13.40;;;11.27;;
23304;SDS011;11821;51.456;8.844;2022-07-23T00:34:42;12.80;;;10.30;;
23304;SDS011;11821;51.456;8.844;2022-07-23T00:37:09;10.77;;;9.77;;
23304;SDS011;11821;51.456;8.844;2022-07-23T00:39:35;13.38;;;10.73;;
23304;SDS011;11821;51.456;8.844;2022-07-23T00:42:02;12.00;;;10.68;;
23304;SDS011;11821;51.456;8.844;2022-07-23T00:44:28;12.30;;;9.73;;
23304;SDS011;11821;51.456;8.844;2022-07-23T00:46:56;12.68;;;10.88;;
23304;SDS011;11821;51.456;8.844;2022-07-23T00:49:24;13.93;;;10.95;;
23304;SDS011;11821;51.456;8.844;2022-07-23T00:51:53;13.05;;;10.88;;
23304;SDS011;11821;51.456;8.844;2022-07-23T00:54:22;12.40;;;10.30;;
23304;SDS011;11821;51.456;8.844;2022-07-23T00:56:49;14.93;;;11.27;;
23304;SDS011;11821;51.456;8.844;2022-07-23T00:59:16;10.98;;;9.88;;
23304;SDS011;11821;51.456;8.844;2022-07-23T01:01:42;13.18;;;10.85;;
23304;SDS011;11821;51.456;8.844;2022-07-23T01:04:14;15.13;;;9.27;;
23304;SDS011;11821;51.456;8.844;2022-07-23T01:06:41;12.77;;;10.18;;
23304;SDS011;11821;51.456;8.844;2022-07-23T01:09:09;13.07;;;10.73;;
23304;SDS011;11821;51.456;8.844;2022-07-23T01:11:36;12.57;;;10.38;;
23304;SDS011;11821;51.456;8.844;2022-07-23T01:14:10;14.70;;;11.30;;
23304;SDS011;11821;51.456;8.844;2022-07-23T01:16:37;11.27;;;10.10;;
23304;SDS011;11821;51.456;8.844;2022-07-23T01:19:05;11.73;;;10.63;;
23304;SDS011;11821;51.456;8.844;2022-07-23T01:21:35;14.85;;;10.20;;
23304;SDS011;11821;51.456;8.844;2022-07-23T01:24:03;10.98;;;9.60;;
23304;SDS011;11821;51.456;8.844;2022-07-23T01:26:31;16.77;;;10.95;;
23304;SDS011;11821;51.456;8.844;2022-07-23T01:28:58;16.00;;;11.82;;
23304;SDS011;11821;51.456;8.844;2022-07-23T01:31:24;13.85;;;12.25;;
23304;SDS011;11821;51.456;8.844;2022-07-23T01:33:51;13.18;;;9.75;;
23304;SDS011;11821;51.456;8.844;2022-07-23T01:36:18;12.50;;;11.20;;
23304;SDS011;11821;51.456;8.844;2022-07-23T01:38:45;12.55;;;11.27;;
23304;SDS011;11821;51.456;8.844;2022-07-23T01:41:11;12.15;;;10.95;;
23304;SDS011;11821;51.456;8.844;2022-07-23T01:43:37;12.48;;;10.98;;
23304;SDS011;11821;51.456;8.844;2022-07-23T01:46:04;16.60;;;11.80;;
23304;SDS011;11821;51.456;8.844;2022-07-23T01:48:37;12.13;;;10.90;;
23304;SDS011;11821;51.456;8.844;2022-07-23T01:51:30;17.65;;;11.13;;
23304;SDS011;11821;51.456;8.844;2022-07-23T01:54:02;13.82;;;11.23;;
23304;SDS011;11821;51.456;8.844;2022-07-23T01:56:28;13.32;;;10.77;;
23304;SDS011;11821;51.456;8.844;2022-07-23T01:58:54;15.07;;;10.95;;
23304;SDS011;11821;51.456;8.844;2022-07-23T02:01:22;13.15;;;11.00;;
23304;SDS011;11821;51.456;8.844;2022-07-23T02:03:48;15.23;;;11.02;;
23304;SDS011;11821;51.456;8.844;2022-07-23T02:06:14;15.27;;;11.05;;
23304;SDS011;11821;51.456;8.844;2022-07-23T02:08:41;14.27;;;11.27;;
23304;SDS011;11821;51.456;8.844;2022-07-23T02:11:07;15.15;;;12.10;;
23304;SDS011;11821;51.456;8.844;2022-07-23T02:13:33;19.48;;;13.68;;
23304;SDS011;11821;51.456;8.844;2022-07-23T02:16:00;12.45;;;11.15;;
23304;SDS011;11821;51.456;8.844;2022-07-23T02:18:26;13.20;;;11.75;;
23304;SDS011;11821;51.456;8.844;2022-07-23T02:20:53;17.75;;;11.52;;
23304;SDS011;11821;51.456;8.844;2022-07-23T02:23:19;20.40;;;12.43;;
23304;SDS011;11821;51.456;8.844;2022-07-23T02:25:48;15.50;;;13.63;;
23304;SDS011;11821;51.456;8.844;2022-07-23T02:28:14;21.10;;;12.88;;
23304;SDS011;11821;51.456;8.844;2022-07-23T02:30:41;19.80;;;13.88;;
23304;SDS011;11821;51.456;8.844;2022-07-23T02:33:08;18.55;;;12.60;;
23304;SDS011;11821;51.456;8.844;2022-07-23T02:35:35;18.25;;;12.85;;
23304;SDS011;11821;51.456;8.844;2022-07-23T02:38:02;17.58;;;13.68;;
23304;SDS011;11821;51.456;8.844;2022-07-23T02:40:30;18.95;;;13.80;;
23304;SDS011;11821;51.456;8.844;2022-07-23T02:42:57;17.02;;;13.30;;
23304;SDS011;11821;51.456;8.844;2022-07-23T02:45:23;17.40;;;14.15;;
23304;SDS011;11821;51.456;8.844;2022-07-23T02:47:51;19.05;;;14.98;;
23304;SDS011;11821;51.456;8.844;2022-07-23T02:50:17;20.13;;;15.05;;
23304;SDS011;11821;51.456;8.844;2022-07-23T02:52:44;19.10;;;14.25;;
23304;SDS011;11821;51.456;8.844;2022-07-23T02:55:10;19.55;;;13.60;;
23304;SDS011;11821;51.456;8.844;2022-07-23T02:57:36;19.27;;;13.38;;
23304;SDS011;11821;51.456;8.844;2022-07-23T03:00:03;16.38;;;12.80;;
23304;SDS011;11821;51.456;8.844;2022-07-23T03:02:31;18.00;;;11.73;;
23304;SDS011;11821;51.456;8.844;2022-07-23T03:04:57;25.10;;;14.98;;
23304;SDS011;11821;51.456;8.844;2022-07-23T03:07:24;17.20;;;13.88;;
23304;SDS011;11821;51.456;8.844;2022-07-23T03:09:51;25.85;;;15.57;;
23304;SDS011;11821;51.456;8.844;2022-07-23T03:12:17;22.95;;;14.57;;
23304;SDS011;11821;51.456;8.844;2022-07-23T03:14:43;23.38;;;15.40;;
23304;SDS011;11821;51.456;8.844;2022-07-23T03:17:10;22.77;;;15.65;;
23304;SDS011;11821;51.456;8.844;2022-07-23T03:19:36;26.13;;;15.18;;
23304;SDS011;11821;51.456;8.844;2022-07-23T03:22:03;29.30;;;16.23;;
23304;SDS011;11821;51.456;8.844;2022-07-23T03:24:29;24.02;;;16.58;;
23304;SDS011;11821;51.456;8.844;2022-07-23T03:27:14;28.30;;;16.90;;
23304;SDS011;11821;51.456;8.844;2022-07-23T03:29:41;25.25;;;17.05;;
23304;SDS011;11821;51.456;8.844;2022-07-23T03:32:07;30.17;;;16.90;;
23304;SDS011;11821;51.456;8.844;2022-07-23T03:34:33;21.63;;;15.57;;
23304;SDS011;11821;51.456;8.844;2022-07-23T03:36:59;26.40;;;15.27;;
23304;SDS011;11821;51.456;8.844;2022-07-23T03:39:26;26.30;;;15.90;;
23304;SDS011;11821;51.456;8.844;2022-07-23T03:41:52;22.30;;;15.23;;
23304;SDS011;11821;51.456;8.844;2022-07-23T03:44:18;24.65;;;16.13;;
23304;SDS011;11821;51.456;8.844;2022-07-23T03:46:44;24.05;;;15.43;;
23304;SDS011;11821;51.456;8.844;2022-07-23T03:49:11;23.30;;;15.00;;
23304;SDS011;11821;51.456;8.844;2022-07-23T03:51:37;35.60;;;16.73;;
23304;SDS011;11821;51.456;8.844;2022-07-23T03:54:03;25.17;;;15.23;;
23304;SDS011;11821;51.456;8.844;2022-07-23T03:56:31;20.52;;;15.30;;
23304;SDS011;11821;51.456;8.844;2022-07-23T03:58:57;27.67;;;17.20;;
23304;SDS011;11821;51.456;8.844;2022-07-23T04:01:23;35.10;;;17.35;;
23304;SDS011;11821;51.456;8.844;2022-07-23T04:03:50;24.05;;;16.02;;
23304;SDS011;11821;51.456;8.844;2022-07-23T04:06:17;29.80;;;17.42;;
23304;SDS011;11821;51.456;8.844;2022-07-23T04:08:46;32.03;;;17.92;;
23304;SDS011;11821;51.456;8.844;2022-07-23T04:11:12;27.50;;;17.70;;
23304;SDS011;11821;51.456;8.844;2022-07-23T04:13:38;30.85;;;17.65;;
23304;SDS011;11821;51.456;8.844;2022-07-23T04:16:05;29.20;;;17.80;;
23304;SDS011;11821;51.456;8.844;2022-07-23T04:18:32;30.23;;;17.00;;
23304;SDS011;11821;51.456;8.844;2022-07-23T04:21:13;25.90;;;16.30;;
23304;SDS011;11821;51.456;8.844;2022-07-23T04:23:40;29.75;;;17.98;;
23304;SDS011;11821;51.456;8.844;2022-07-23T04:26:06;28.63;;;17.67;;
23304;SDS011;11821;51.456;8.844;2022-07-23T04:28:33;33.28;;;17.75;;
23304;SDS011;11821;51.456;8.844;2022-07-23T04:31:01;31.08;;;16.98;;
23304;SDS011;11821;51.456;8.844;2022-07-23T04:33:28;28.85;;;16.63;;
23304;SDS011;11821;51.456;8.844;2022-07-23T04:35:57;24.88;;;16.70;;
23304;SDS011;11821;51.456;8.844;2022-07-23T04:38:24;29.33;;;17.02;;
23304;SDS011;11821;51.456;8.844;2022-07-23T04:40:54;26.25;;;17.52;;
23304;SDS011;11821;51.456;8.844;2022-07-23T04:43:21;29.17;;;17.85;;
23304;SDS011;11821;51.456;8.844;2022-07-23T04:45:49;28.08;;;18.20;;
23304;SDS011;11821;51.456;8.844;2022-07-23T04:48:15;26.45;;;17.27;;
23304;SDS011;11821;51.456;8.844;2022-07-23T04:50:42;30.55;;;18.33;;
23304;SDS011;11821;51.456;8.844;2022-07-23T04:53:16;25.17;;;16.65;;
23304;SDS011;11821;51.456;8.844;2022-07-23T04:55:44;22.75;;;16.02;;
23304;SDS011;11821;51.456;8.844;2022-07-23T04:58:10;24.55;;;16.80;;
23304;SDS011;11821;51.456;8.844;2022-07-23T05:00:36;23.00;;;16.23;;
23304;SDS011;11821;51.456;8.844;2022-07-23T05:03:03;20.63;;;16.42;;
23304;SDS011;11821;51.456;8.844;2022-07-23T05:05:29;24.90;;;16.33;;
23304;SDS011;11821;51.456;8.844;2022-07-23T05:08:04;22.77;;;15.57;;
23304;SDS011;11821;51.456;8.844;2022-07-23T05:10:31;23.40;;;15.75;;
23304;SDS011;11821;51.456;8.844;2022-07-23T05:12:57;31.95;;;17.75;;
23304;SDS011;11821;51.456;8.844;2022-07-23T05:15:24;23.85;;;17.15;;
23304;SDS011;11821;51.456;8.844;2022-07-23T05:17:50;22.13;;;16.88;;
23304;SDS011;11821;51.456;8.844;2022-07-23T05:20:17;25.88;;;17.35;;
23304;SDS011;11821;51.456;8.844;2022-07-23T05:22:43;24.48;;;16.23;;
23304;SDS011;11821;51.456;8.844;2022-07-23T05:25:09;19.63;;;15.55;;
23304;SDS011;11821;51.456;8.844;2022-07-23T05:27:36;26.52;;;16.50;;
23304;SDS011;11821;51.456;8.844;2022-07-23T05:30:03;21.55;;;16.10;;
23304;SDS011;11821;51.456;8.844;2022-07-23T05:32:32;24.35;;;15.35;;
23304;SDS011;11821;51.456;8.844;2022-07-23T05:35:07;22.40;;;16.08;;
23304;SDS011;11821;51.456;8.844;2022-07-23T05:37:37;23.73;;;16.20;;
23304;SDS011;11821;51.456;8.844;2022-07-23T05:40:07;24.48;;;16.13;;
23304;SDS011;11821;51.456;8.844;2022-07-23T05:45:03;25.40;;;16.67;;
23304;SDS011;11821;51.456;8.844;2022-07-23T05:48:06;23.83;;;16.73;;
23304;SDS011;11821;51.456;8.844;2022-07-23T05:50:31;21.45;;;16.58;;
23304;SDS011;11821;51.456;8.844;2022-07-23T05:53:09;21.45;;;15.48;;
23304;SDS011;11821;51.456;8.844;2022-07-23T05:56:05;21.30;;;16.33;;
23304;SDS011;11821;51.456;8.844;2022-07-23T05:58:31;25.27;;;16.58;;
23304;SDS011;11821;51.456;8.844;2022-07-23T06:00:58;18.02;;;14.20;;
23304;SDS011;11821;51.456;8.844;2022-07-23T06:03:24;27.38;;;15.27;;
23304;SDS011;11821;51.456;8.844;2022-07-23T06:05:50;16.92;;;15.05;;
23304;SDS011;11821;51.456;8.844;2022-07-23T06:08:17;16.73;;;14.60;;
23304;SDS011;11821;51.456;8.844;2022-07-23T06:10:43;21.38;;;15.00;;
23304;SDS011;11821;51.456;8.844;2022-07-23T06:13:10;18.77;;;14.73;;
23304;SDS011;11821;51.456;8.844;2022-07-23T06:15:36;17.40;;;13.48;;
23304;SDS011;11821;51.456;8.844;2022-07-23T06:18:02;15.15;;;13.40;;
23304;SDS011;11821;51.456;8.844;2022-07-23T06:20:29;15.95;;;13.77;;
23304;SDS011;11821;51.456;8.844;2022-07-23T06:22:57;13.68;;;11.98;;
23304;SDS011;11821;51.456;8.844;2022-07-23T06:25:23;15.70;;;12.30;;
23304;SDS011;11821;51.456;8.844;2022-07-23T06:27:49;17.48;;;12.75;;
23304;SDS011;11821;51.456;8.844;2022-07-23T06:30:16;12.50;;;11.07;;
23304;SDS011;11821;51.456;8.844;2022-07-23T06:32:43;12.43;;;9.43;;
23304;SDS011;11821;51.456;8.844;2022-07-23T06:35:09;13.65;;;8.82;;
23304;SDS011;11821;51.456;8.844;2022-07-23T06:37:36;10.13;;;7.28;;
23304;SDS011;11821;51.456;8.844;2022-07-23T06:40:03;8.90;;;8.00;;
23304;SDS011;11821;51.456;8.844;2022-07-23T06:42:29;10.77;;;8.20;;
23304;SDS011;11821;51.456;8.844;2022-07-23T06:44:58;13.13;;;9.07;;
23304;SDS011;11821;51.456;8.844;2022-07-23T06:47:24;8.20;;;7.40;;
23304;SDS011;11821;51.456;8.844;2022-07-23T06:49:51;9.65;;;7.70;;
23304;SDS011;11821;51.456;8.844;2022-07-23T06:52:17;8.52;;;7.72;;
23304;SDS011;11821;51.456;8.844;2022-07-23T06:54:43;8.13;;;7.32;;
23304;SDS011;11821;51.456;8.844;2022-07-23T06:57:10;8.13;;;7.32;;
23304;SDS011;11821;51.456;8.844;2022-07-23T06:59:36;13.25;;;8.30;;
23304;SDS011;11821;51.456;8.844;2022-07-23T07:02:06;9.93;;;8.60;;
23304;SDS011;11821;51.456;8.844;2022-07-23T07:04:33;9.25;;;8.27;;
23304;SDS011;11821;51.456;8.844;2022-07-23T07:07:00;9.77;;;8.38;;
23304;SDS011;11821;51.456;8.844;2022-07-23T07:09:26;9.98;;;8.98;;
23304;SDS011;11821;51.456;8.844;2022-07-23T07:11:53;7.93;;;7.22;;
23304;SDS011;11821;51.456;8.844;2022-07-23T07:14:19;10.00;;;9.05;;
23304;SDS011;11821;51.456;8.844;2022-07-23T07:16:45;8.32;;;7.47;;
23304;SDS011;11821;51.456;8.844;2022-07-23T07:19:11;10.35;;;7.95;;
23304;SDS011;11821;51.456;8.844;2022-07-23T07:21:38;8.77;;;7.95;;
23304;SDS011;11821;51.456;8.844;2022-07-23T07:24:04;8.60;;;7.53;;
23304;SDS011;11821;51.456;8.844;2022-07-23T07:26:32;7.93;;;7.13;;
23304;SDS011;11821;51.456;8.844;2022-07-23T07:28:58;7.10;;;6.40;;
23304;SDS011;11821;51.456;8.844;2022-07-23T07:31:25;6.97;;;6.03;;
23304;SDS011;11821;51.456;8.844;2022-07-23T07:33:51;7.35;;;6.40;;
23304;SDS011;11821;51.456;8.844;2022-07-23T07:36:17;10.20;;;6.75;;
23304;SDS011;11821;51.456;8.844;2022-07-23T07:38:44;6.53;;;5.78;;
23304;SDS011;11821;51.456;8.844;2022-07-23T07:41:10;6.28;;;5.50;;
23304;SDS011;11821;51.456;8.844;2022-07-23T07:43:37;7.65;;;6.20;;
23304;SDS011;11821;51.456;8.844;2022-07-23T07:46:04;7.18;;;6.53;;
23304;SDS011;11821;51.456;8.844;2022-07-23T07:48:30;6.28;;;5.75;;
23304;SDS011;11821;51.456;8.844;2022-07-23T07:50:56;7.47;;;6.10;;
23304;SDS011;11821;51.456;8.844;2022-07-23T07:53:23;8.20;;;6.05;;
23304;SDS011;11821;51.456;8.844;2022-07-23T07:55:49;7.45;;;6.47;;
23304;SDS011;11821;51.456;8.844;2022-07-23T07:58:15;7.32;;;6.30;;
23304;SDS011;11821;51.456;8.844;2022-07-23T08:00:41;7.72;;;5.47;;
23304;SDS011;11821;51.456;8.844;2022-07-23T08:03:08;6.20;;;5.63;;
23304;SDS011;11821;51.456;8.844;2022-07-23T08:05:34;7.05;;;5.95;;
23304;SDS011;11821;51.456;8.844;2022-07-23T08:08:00;6.30;;;5.68;;
23304;SDS011;11821;51.456;8.844;2022-07-23T08:10:27;7.07;;;5.28;;
23304;SDS011;11821;51.456;8.844;2022-07-23T08:12:54;7.68;;;5.95;;
23304;SDS011;11821;51.456;8.844;2022-07-23T08:15:26;7.63;;;6.18;;
23304;SDS011;11821;51.456;8.844;2022-07-23T08:17:53;7.53;;;6.65;;
23304;SDS011;11821;51.456;8.844;2022-07-23T08:20:20;7.22;;;6.53;;
23304;SDS011;11821;51.456;8.844;2022-07-23T08:25:22;5.70;;;4.97;;
23304;SDS011;11821;51.456;8.844;2022-07-23T08:27:53;6.97;;;6.28;;
23304;SDS011;11821;51.456;8.844;2022-07-23T08:30:20;8.07;;;5.80;;
23304;SDS011;11821;51.456;8.844;2022-07-23T08:33:07;7.07;;;6.38;;
23304;SDS011;11821;51.456;8.844;2022-07-23T08:35:34;8.18;;;6.35;;
23304;SDS011;11821;51.456;8.844;2022-07-23T08:38:03;7.97;;;7.15;;
23304;SDS011;11821;51.456;8.844;2022-07-23T08:40:32;7.93;;;7.20;;
23304;SDS011;11821;51.456;8.844;2022-07-23T08:43:00;7.63;;;6.93;;
23304;SDS011;11821;51.456;8.844;2022-07-23T08:45:35;7.70;;;6.25;;
23304;SDS011;11821;51.456;8.844;2022-07-23T08:48:05;7.95;;;6.32;;
23304;SDS011;11821;51.456;8.844;2022-07-23T08:50:35;9.82;;;5.95;;
23304;SDS011;11821;51.456;8.844;2022-07-23T08:53:07;9.95;;;7.03;;
23304;SDS011;11821;51.456;8.844;2022-07-23T08:55:33;7.20;;;6.25;;
23304;SDS011;11821;51.456;8.844;2022-07-23T08:58:00;6.07;;;5.55;;
23304;SDS011;11821;51.456;8.844;2022-07-23T09:00:26;7.35;;;6.65;;
23304;SDS011;11821;51.456;8.844;2022-07-23T09:02:53;7.22;;;6.53;;
23304;SDS011;11821;51.456;8.844;2022-07-23T09:05:20;9.65;;;6.88;;
23304;SDS011;11821;51.456;8.844;2022-07-23T09:10:43;7.38;;;6.60;;
23304;SDS011;11821;51.456;8.844;2022-07-23T09:15:55;6.95;;;5.43;;
23304;SDS011;11821;51.456;8.844;2022-07-23T09:18:30;6.88;;;6.18;;
23304;SDS011;11821;51.456;8.844;2022-07-23T09:21:08;8.30;;;6.15;;
23304;SDS011;11821;51.456;8.844;2022-07-23T09:23:38;6.38;;;5.68;;
23304;SDS011;11821;51.456;8.844;2022-07-23T09:29:16;8.18;;;5.00;;
23304;SDS011;11821;51.456;8.844;2022-07-23T09:34:14;5.45;;;4.90;;
23304;SDS011;11821;51.456;8.844;2022-07-23T09:36:49;5.95;;;4.40;;
23304;SDS011;11821;51.456;8.844;2022-07-23T09:39:22;9.55;;;4.68;;
23304;SDS011;11821;51.456;8.844;2022-07-23T09:41:57;7.32;;;5.32;;
23304;SDS011;11821;51.456;8.844;2022-07-23T09:44:40;4.80;;;4.40;;
23304;SDS011;11821;51.456;8.844;2022-07-23T09:47:07;6.32;;;4.90;;
23304;SDS011;11821;51.456;8.844;2022-07-23T09:49:34;4.65;;;4.22;;
23304;SDS011;11821;51.456;8.844;2022-07-23T09:52:00;5.38;;;4.57;;
23304;SDS011;11821;51.456;8.844;2022-07-23T09:57:08;4.72;;;4.22;;
23304;SDS011;11821;51.456;8.844;2022-07-23T09:59:41;5.20;;;4.60;;
23304;SDS011;11821;51.456;8.844;2022-07-23T10:02:09;7.45;;;6.03;;
23304;SDS011;11821;51.456;8.844;2022-07-23T10:05:07;6.03;;;5.18;;
23304;SDS011;11821;51.456;8.844;2022-07-23T10:07:56;8.10;;;5.15;;
23304;SDS011;11821;51.456;8.844;2022-07-23T10:10:43;5.90;;;5.30;;
23304;SDS011;11821;51.456;8.844;2022-07-23T10:13:32;8.27;;;6.05;;
23304;SDS011;11821;51.456;8.844;2022-07-23T10:16:01;6.25;;;5.65;;
23304;SDS011;11821;51.456;8.844;2022-07-23T10:18:28;6.00;;;5.50;;
23304;SDS011;11821;51.456;8.844;2022-07-23T10:20:56;5.63;;;5.13;;
23304;SDS011;11821;51.456;8.844;2022-07-23T10:26:53;8.00;;;6.88;;
23304;SDS011;11821;51.456;8.844;2022-07-23T10:35:18;6.68;;;5.15;;
23304;SDS011;11821;51.456;8.844;2022-07-23T10:40:20;6.47;;;5.18;;
23304;SDS011;11821;51.456;8.844;2022-07-23T10:42:49;9.23;;;5.50;;
23304;SDS011;11821;51.456;8.844;2022-07-23T10:45:22;5.40;;;4.97;;
23304;SDS011;11821;51.456;8.844;2022-07-23T10:47:49;4.65;;;4.15;;
23304;SDS011;11821;51.456;8.844;2022-07-23T10:50:20;5.13;;;4.63;;
23304;SDS011;11821;51.456;8.844;2022-07-23T10:58:04;5.18;;;4.53;;
23304;SDS011;11821;51.456;8.844;2022-07-23T11:00:31;5.15;;;4.57;;
23304;SDS011;11821;51.456;8.844;2022-07-23T11:02:59;4.18;;;3.42;;
23304;SDS011;11821;51.456;8.844;2022-07-23T11:05:46;5.05;;;4.57;;
23304;SDS011;11821;51.456;8.844;2022-07-23T11:08:13;5.05;;;4.10;;
23304;SDS011;11821;51.456;8.844;2022-07-23T11:24:03;3.35;;;3.05;;
23304;SDS011;11821;51.456;8.844;2022-07-23T11:34:24;4.75;;;4.25;;
23304;SDS011;11821;51.456;8.844;2022-07-23T11:36:50;4.22;;;3.83;;
23304;SDS011;11821;51.456;8.844;2022-07-23T11:39:16;6.13;;;4.07;;
23304;SDS011;11821;51.456;8.844;2022-07-23T11:41:45;5.45;;;4.47;;
23304;SDS011;11821;51.456;8.844;2022-07-23T11:44:25;5.63;;;4.03;;
23304;SDS011;11821;51.456;8.844;2022-07-23T11:46:59;6.45;;;5.40;;
23304;SDS011;11821;51.456;8.844;2022-07-23T11:49:30;4.22;;;3.20;;
23304;SDS011;11821;51.456;8.844;2022-07-23T11:52:09;5.60;;;3.95;;
23304;SDS011;11821;51.456;8.844;2022-07-23T11:54:53;5.90;;;3.75;;
23304;SDS011;11821;51.456;8.844;2022-07-23T11:57:25;4.00;;;3.45;;
23304;SDS011;11821;51.456;8.844;2022-07-23T11:59:58;5.00;;;3.80;;
23304;SDS011;11821;51.456;8.844;2022-07-23T12:02:50;5.47;;;4.43;;
23304;SDS011;11821;51.456;8.844;2022-07-23T12:05:19;4.90;;;4.22;;
23304;SDS011;11821;51.456;8.844;2022-07-23T12:07:48;3.90;;;3.53;;
23304;SDS011;11821;51.456;8.844;2022-07-23T12:10:18;3.88;;;3.08;;
23304;SDS011;11821;51.456;8.844;2022-07-23T12:15:13;4.18;;;3.58;;
23304;SDS011;11821;51.456;8.844;2022-07-23T12:17:42;3.85;;;3.45;;
23304;SDS011;11821;51.456;8.844;2022-07-23T12:20:12;5.32;;;3.10;;
23304;SDS011;11821;51.456;8.844;2022-07-23T12:22:42;4.07;;;3.60;;
23304;SDS011;11821;51.456;8.844;2022-07-23T12:27:41;6.43;;;3.85;;
23304;SDS011;11821;51.456;8.844;2022-07-23T12:30:18;4.72;;;3.70;;
23304;SDS011;11821;51.456;8.844;2022-07-23T12:32:46;4.45;;;4.00;;
23304;SDS011;11821;51.456;8.844;2022-07-23T12:35:13;6.82;;;4.28;;
23304;SDS011;11821;51.456;8.844;2022-07-23T12:37:44;4.50;;;3.20;;
23304;SDS011;11821;51.456;8.844;2022-07-23T12:40:19;2.92;;;2.58;;
23304;SDS011;11821;51.456;8.844;2022-07-23T12:42:54;3.50;;;3.20;;
23304;SDS011;11821;51.456;8.844;2022-07-23T12:45:24;5.38;;;4.00;;
23304;SDS011;11821;51.456;8.844;2022-07-23T12:55:39;4.47;;;3.17;;
23304;SDS011;11821;51.456;8.844;2022-07-23T13:00:49;6.07;;;3.00;;
23304;SDS011;11821;51.456;8.844;2022-07-23T13:03:20;6.63;;;3.40;;
23304;SDS011;11821;51.456;8.844;2022-07-23T13:05:58;3.28;;;2.90;;
23304;SDS011;11821;51.456;8.844;2022-07-23T13:08:26;4.25;;;3.33;;
23304;SDS011;11821;51.456;8.844;2022-07-23T13:10:54;11.63;;;3.78;;
23304;SDS011;11821;51.456;8.844;2022-07-23T13:13:21;5.32;;;3.00;;
23304;SDS011;11821;51.456;8.844;2022-07-23T13:15:49;5.25;;;3.55;;
23304;SDS011;11821;51.456;8.844;2022-07-23T13:18:16;6.90;;;2.80;;
23304;SDS011;11821;51.456;8.844;2022-07-23T13:20:43;3.80;;;2.42;;
23304;SDS011;11821;51.456;8.844;2022-07-23T13:23:11;2.88;;;2.60;;
23304;SDS011;11821;51.456;8.844;2022-07-23T13:25:37;3.78;;;2.83;;
23304;SDS011;11821;51.456;8.844;2022-07-23T13:28:03;3.85;;;2.33;;
23304;SDS011;11821;51.456;8.844;2022-07-23T13:30:30;4.63;;;2.28;;
23304;SDS011;11821;51.456;8.844;2022-07-23T13:32:56;3.80;;;2.88;;
23304;SDS011;11821;51.456;8.844;2022-07-23T13:35:22;4.22;;;2.47;;
23304;SDS011;11821;51.456;8.844;2022-07-23T13:37:49;3.22;;;2.03;;
23304;SDS011;11821;51.456;8.844;2022-07-23T13:40:15;4.10;;;2.30;;
23304;SDS011;11821;51.456;8.844;2022-07-23T13:42:42;3.25;;;2.10;;
23304;SDS011;11821;51.456;8.844;2022-07-23T13:45:08;2.60;;;2.35;;
23304;SDS011;11821;51.456;8.844;2022-07-23T13:47:34;3.17;;;2.35;;
23304;SDS011;11821;51.456;8.844;2022-07-23T13:50:01;2.38;;;2.28;;
23304;SDS011;11821;51.456;8.844;2022-07-23T13:52:27;2.63;;;2.42;;
23304;SDS011;11821;51.456;8.844;2022-07-23T13:54:53;2.72;;;1.90;;
23304;SDS011;11821;51.456;8.844;2022-07-23T13:57:20;2.75;;;2.40;;
23304;SDS011;11821;51.456;8.844;2022-07-23T13:59:46;2.63;;;1.80;;
23304;SDS011;11821;51.456;8.844;2022-07-23T14:02:13;3.67;;;2.70;;
23304;SDS011;11821;51.456;8.844;2022-07-23T14:04:43;2.30;;;2.10;;
23304;SDS011;11821;51.456;8.844;2022-07-23T14:07:09;2.75;;;2.30;;
23304;SDS011;11821;51.456;8.844;2022-07-23T14:09:36;3.35;;;2.03;;
23304;SDS011;11821;51.456;8.844;2022-07-23T14:12:02;3.75;;;1.98;;
23304;SDS011;11821;51.456;8.844;2022-07-23T14:14:29;4.85;;;2.15;;
23304;SDS011;11821;51.456;8.844;2022-07-23T14:16:56;6.30;;;2.45;;
23304;SDS011;11821;51.456;8.844;2022-07-23T14:19:22;2.78;;;2.15;;
23304;SDS011;11821;51.456;8.844;2022-07-23T14:21:49;3.33;;;2.58;;
23304;SDS011;11821;51.456;8.844;2022-07-23T14:24:15;2.58;;;2.35;;
23304;SDS011;11821;51.456;8.844;2022-07-23T14:26:41;2.72;;;2.53;;
23304;SDS011;11821;51.456;8.844;2022-07-23T14:29:08;2.35;;;2.13;;
23304;SDS011;11821;51.456;8.844;2022-07-23T14:31:35;2.47;;;2.05;;
23304;SDS011;11821;51.456;8.844;2022-07-23T14:34:01;5.28;;;4.75;;
23304;SDS011;11821;51.456;8.844;2022-07-23T14:36:27;2.60;;;2.40;;
23304;SDS011;11821;51.456;8.844;2022-07-23T14:38:54;1.80;;;1.70;;
23304;SDS011;11821;51.456;8.844;2022-07-23T14:41:20;5.03;;;2.33;;
23304;SDS011;11821;51.456;8.844;2022-07-23T14:43:46;4.22;;;2.53;;
23304;SDS011;11821;51.456;8.844;2022-07-23T14:46:13;3.38;;;2.40;;
23304;SDS011;11821;51.456;8.844;2022-07-23T14:48:39;2.53;;;2.25;;
23304;SDS011;11821;51.456;8.844;2022-07-23T14:51:05;2.63;;;1.83;;
23304;SDS011;11821;51.456;8.844;2022-07-23T14:53:31;2.15;;;1.98;;
23304;SDS011;11821;51.456;8.844;2022-07-23T14:55:58;4.28;;;2.17;;
23304;SDS011;11821;51.456;8.844;2022-07-23T14:58:24;3.85;;;2.70;;
23304;SDS011;11821;51.456;8.844;2022-07-23T15:00:50;2.08;;;1.83;;
23304;SDS011;11821;51.456;8.844;2022-07-23T15:03:17;3.47;;;2.33;;
23304;SDS011;11821;51.456;8.844;2022-07-23T15:05:43;2.00;;;1.83;;
23304;SDS011;11821;51.456;8.844;2022-07-23T15:08:09;2.35;;;2.15;;
23304;SDS011;11821;51.456;8.844;2022-07-23T15:10:36;1.98;;;1.77;;
23304;SDS011;11821;51.456;8.844;2022-07-23T15:13:02;2.65;;;1.95;;
23304;SDS011;11821;51.456;8.844;2022-07-23T15:15:29;4.20;;;1.92;;
23304;SDS011;11821;51.456;8.844;2022-07-23T15:17:56;5.13;;;2.20;;
23304;SDS011;11821;51.456;8.844;2022-07-23T15:20:22;2.45;;;2.08;;
23304;SDS011;11821;51.456;8.844;2022-07-23T15:22:48;2.90;;;2.15;;
23304;SDS011;11821;51.456;8.844;2022-07-23T15:25:15;3.13;;;1.90;;
23304;SDS011;11821;51.456;8.844;2022-07-23T15:27:41;2.55;;;1.80;;
23304;SDS011;11821;51.456;8.844;2022-07-23T15:30:07;1.65;;;1.50;;
23304;SDS011;11821;51.456;8.844;2022-07-23T15:32:34;2.72;;;1.80;;
23304;SDS011;11821;51.456;8.844;2022-07-23T15:35:00;2.40;;;1.90;;
23304;SDS011;11821;51.456;8.844;2022-07-23T15:37:27;4.57;;;2.22;;
23304;SDS011;11821;51.456;8.844;2022-07-23T15:39:53;2.30;;;1.88;;
23304;SDS011;11821;51.456;8.844;2022-07-23T15:42:19;3.92;;;1.92;;
23304;SDS011;11821;51.456;8.844;2022-07-23T15:44:45;2.47;;;1.75;;
23304;SDS011;11821;51.456;8.844;2022-07-23T15:47:13;3.55;;;1.98;;
23304;SDS011;11821;51.456;8.844;2022-07-23T15:49:40;3.63;;;1.98;;
23304;SDS011;11821;51.456;8.844;2022-07-23T15:52:07;2.22;;;1.90;;
23304;SDS011;11821;51.456;8.844;2022-07-23T15:54:35;2.92;;;2.00;;